sensor_id;sensor_type;location;lat;lon;timestamp;pressure;altitude;pressure_sealevel;temperature;humidity
46015;BME280;36844;51.898;-0.874;2023-03-13T00:00:48;98306.72;;;19.16;
46015;BME280;36844;51.898;-0.874;2023-03-13T00:03:13;98305.25;;;19.15;
46015;BME280;36844;51.898;-0.874;2023-03-13T00:05:38;98300.78;;;19.12;
46015;BME280;36844;51.898;-0.874;2023-03-13T00:08:03;98295.06;;;19.10;
46015;BME280;36844;51.898;-0.874;2023-03-13T00:10:28;98267.06;;;19.08;
46015;BME280;36844;51.898;-0.874;2023-03-13T00:12:54;98249.84;;;19.05;
46015;BME280;36844;51.898;-0.874;2023-03-13T00:15:19;98236.06;;;19.03;
46015;BME280;36844;51.898;-0.874;2023-03-13T00:17:44;98230.38;;;19.01;
46015;BME280;36844;51.898;-0.874;2023-03-13T00:20:09;98213.88;;;18.99;
46015;BME280;36844;51.898;-0.874;2023-03-13T00:22:35;98205.53;;;18.97;
46015;BME280;36844;51.898;-0.874;2023-03-13T00:25:00;98206.72;;;18.96;
46015;BME280;36844;51.898;-0.874;2023-03-13T00:27:25;98213.75;;;18.94;
46015;BME280;36844;51.898;-0.874;2023-03-13T00:29:50;98208.06;;;18.92;
46015;BME280;36844;51.898;-0.874;2023-03-13T00:32:16;98209.00;;;18.89;
46015;BME280;36844;51.898;-0.874;2023-03-13T00:34:41;98204.81;;;18.88;
46015;BME280;36844;51.898;-0.874;2023-03-13T00:37:06;98206.00;;;18.87;
46015;BME280;36844;51.898;-0.874;2023-03-13T00:39:31;98196.91;;;18.84;
46015;BME280;36844;51.898;-0.874;2023-03-13T00:41:57;98199.28;;;18.82;
46015;BME280;36844;51.898;-0.874;2023-03-13T00:44:22;98203.22;;;18.81;
46015;BME280;36844;51.898;-0.874;2023-03-13T00:46:47;98200.19;;;18.79;
46015;BME280;36844;51.898;-0.874;2023-03-13T00:49:12;98203.34;;;18.77;
46015;BME280;36844;51.898;-0.874;2023-03-13T00:51:37;98206.50;;;18.76;
46015;BME280;36844;51.898;-0.874;2023-03-13T00:54:03;98194.22;;;18.75;
46015;BME280;36844;51.898;-0.874;2023-03-13T00:56:28;98187.06;;;18.72;
46015;BME280;36844;51.898;-0.874;2023-03-13T00:58:54;98202.97;;;18.70;
46015;BME280;36844;51.898;-0.874;2023-03-13T01:01:23;98199.50;;;18.69;
46015;BME280;36844;51.898;-0.874;2023-03-13T01:03:50;98193.78;;;18.67;
46015;BME280;36844;51.898;-0.874;2023-03-13T01:06:16;98201.63;;;18.65;
46015;BME280;36844;51.898;-0.874;2023-03-13T01:08:41;98210.13;;;18.64;
46015;BME280;36844;51.898;-0.874;2023-03-13T01:11:08;98201.31;;;18.63;
46015;BME280;36844;51.898;-0.874;2023-03-13T01:13:34;98201.78;;;18.62;
46015;BME280;36844;51.898;-0.874;2023-03-13T01:16:01;98185.28;;;18.60;
46015;BME280;36844;51.898;-0.874;2023-03-13T01:18:26;98212.72;;;18.58;
46015;BME280;36844;51.898;-0.874;2023-03-13T01:20:51;98197.75;;;18.57;
46015;BME280;36844;51.898;-0.874;2023-03-13T01:23:17;98200.91;;;18.56;
46015;BME280;36844;51.898;-0.874;2023-03-13T01:25:42;98190.56;;;18.54;
46015;BME280;36844;51.898;-0.874;2023-03-13T01:28:07;98185.63;;;18.53;
46015;BME280;36844;51.898;-0.874;2023-03-13T01:30:32;98192.22;;;18.52;
46015;BME280;36844;51.898;-0.874;2023-03-13T01:32:57;98179.97;;;18.51;
46015;BME280;36844;51.898;-0.874;2023-03-13T01:35:23;98176.97;;;18.49;
46015;BME280;36844;51.898;-0.874;2023-03-13T01:37:48;98177.41;;;18.47;
46015;BME280;36844;51.898;-0.874;2023-03-13T01:40:13;98167.84;;;18.46;
46015;BME280;36844;51.898;-0.874;2023-03-13T01:42:52;98160.97;;;18.45;
46015;BME280;36844;51.898;-0.874;2023-03-13T01:48:03;98134.63;;;18.40;
46015;BME280;36844;51.898;-0.874;2023-03-13T01:50:28;98138.53;;;18.39;
46015;BME280;36844;51.898;-0.874;2023-03-13T01:52:53;98141.22;;;18.39;
46015;BME280;36844;51.898;-0.874;2023-03-13T01:55:19;98138.22;;;18.37;
46015;BME280;36844;51.898;-0.874;2023-03-13T01:57:46;98138.66;;;18.36;
46015;BME280;36844;51.898;-0.874;2023-03-13T02:00:19;98130.56;;;18.36;
46015;BME280;36844;51.898;-0.874;2023-03-13T02:02:47;98119.53;;;18.34;
46015;BME280;36844;51.898;-0.874;2023-03-13T02:05:13;98115.34;;;18.33;
46015;BME280;36844;51.898;-0.874;2023-03-13T02:07:40;98113.13;;;18.31;
46015;BME280;36844;51.898;-0.874;2023-03-13T02:10:06;98122.38;;;18.30;
46015;BME280;36844;51.898;-0.874;2023-03-13T02:12:33;98113.56;;;18.30;
46015;BME280;36844;51.898;-0.874;2023-03-13T02:14:59;98080.47;;;18.29;
46015;BME280;36844;51.898;-0.874;2023-03-13T02:17:25;98083.66;;;18.28;
46015;BME280;36844;51.898;-0.874;2023-03-13T02:19:51;98079.47;;;18.27;
46015;BME280;36844;51.898;-0.874;2023-03-13T02:24:53;98067.16;;;18.26;
46015;BME280;36844;51.898;-0.874;2023-03-13T02:27:20;98066.91;;;18.24;
46015;BME280;36844;51.898;-0.874;2023-03-13T02:29:45;98060.00;;;18.23;
46015;BME280;36844;51.898;-0.874;2023-03-13T02:32:11;98053.13;;;18.22;
46015;BME280;36844;51.898;-0.874;2023-03-13T02:34:37;98057.00;;;18.21;
46015;BME280;36844;51.898;-0.874;2023-03-13T02:37:03;98042.06;;;18.20;
46015;BME280;36844;51.898;-0.874;2023-03-13T02:39:30;98038.63;;;18.19;
46015;BME280;36844;51.898;-0.874;2023-03-13T02:41:56;98034.44;;;18.18;
46015;BME280;36844;51.898;-0.874;2023-03-13T02:44:21;98034.88;;;18.17;
46015;BME280;36844;51.898;-0.874;2023-03-13T02:46:48;98034.16;;;18.16;
46015;BME280;36844;51.898;-0.874;2023-03-13T02:49:24;98032.66;;;18.15;
46015;BME280;36844;51.898;-0.874;2023-03-13T02:51:50;98017.69;;;18.14;
46015;BME280;36844;51.898;-0.874;2023-03-13T02:54:17;98016.94;;;18.14;
46015;BME280;36844;51.898;-0.874;2023-03-13T02:56:44;98004.72;;;18.13;
46015;BME280;36844;51.898;-0.874;2023-03-13T02:59:10;97998.56;;;18.12;
46015;BME280;36844;51.898;-0.874;2023-03-13T03:01:36;98013.97;;;18.12;
46015;BME280;36844;51.898;-0.874;2023-03-13T03:04:01;97999.00;;;18.11;
46015;BME280;36844;51.898;-0.874;2023-03-13T03:06:26;97985.28;;;18.09;
46015;BME280;36844;51.898;-0.874;2023-03-13T03:08:51;98002.63;;;18.08;
46015;BME280;36844;51.898;-0.874;2023-03-13T03:11:17;98001.88;;;18.07;
46015;BME280;36844;51.898;-0.874;2023-03-13T03:13:42;98001.88;;;18.07;
46015;BME280;36844;51.898;-0.874;2023-03-13T03:16:08;97996.94;;;18.06;
46015;BME280;36844;51.898;-0.874;2023-03-13T03:18:34;97999.63;;;18.06;
46015;BME280;36844;51.898;-0.874;2023-03-13T03:20:59;97991.25;;;18.04;
46015;BME280;36844;51.898;-0.874;2023-03-13T03:23:24;97977.78;;;18.04;
46015;BME280;36844;51.898;-0.874;2023-03-13T03:25:49;97970.91;;;18.03;
46015;BME280;36844;51.898;-0.874;2023-03-13T03:28:15;97976.28;;;18.03;
46015;BME280;36844;51.898;-0.874;2023-03-13T03:30:40;97976.78;;;18.01;
46015;BME280;36844;51.898;-0.874;2023-03-13T03:33:05;97967.19;;;18.00;
46015;BME280;36844;51.898;-0.874;2023-03-13T03:35:30;97977.22;;;18.00;
46015;BME280;36844;51.898;-0.874;2023-03-13T03:37:56;97964.50;;;18.00;
46015;BME280;36844;51.898;-0.874;2023-03-13T03:40:21;97964.97;;;17.99;
46015;BME280;36844;51.898;-0.874;2023-03-13T03:42:46;97956.88;;;17.99;
46015;BME280;36844;51.898;-0.874;2023-03-13T03:45:11;97950.44;;;17.96;
46015;BME280;36844;51.898;-0.874;2023-03-13T03:47:36;97958.53;;;17.96;
46015;BME280;36844;51.898;-0.874;2023-03-13T03:50:02;97944.31;;;17.96;
46015;BME280;36844;51.898;-0.874;2023-03-13T03:52:28;97950.91;;;17.95;
46015;BME280;36844;51.898;-0.874;2023-03-13T03:54:53;97934.75;;;17.95;
46015;BME280;36844;51.898;-0.874;2023-03-13T03:57:18;97937.91;;;17.93;
46015;BME280;36844;51.898;-0.874;2023-03-13T03:59:44;97937.16;;;17.93;
46015;BME280;36844;51.898;-0.874;2023-03-13T04:02:09;97932.53;;;17.93;
46015;BME280;36844;51.898;-0.874;2023-03-13T04:04:34;97938.38;;;17.92;
46015;BME280;36844;51.898;-0.874;2023-03-13T04:06:59;97950.34;;;17.91;
46015;BME280;36844;51.898;-0.874;2023-03-13T04:09:25;97951.09;;;17.91;
46015;BME280;36844;51.898;-0.874;2023-03-13T04:11:50;97956.94;;;17.90;
46015;BME280;36844;51.898;-0.874;2023-03-13T04:14:15;97942.72;;;17.89;
46015;BME280;36844;51.898;-0.874;2023-03-13T04:16:40;97933.13;;;17.88;
46015;BME280;36844;51.898;-0.874;2023-03-13T04:19:05;97941.97;;;17.89;
46015;BME280;36844;51.898;-0.874;2023-03-13T04:21:31;97924.34;;;17.88;
46015;BME280;36844;51.898;-0.874;2023-03-13T04:23:56;97925.53;;;17.87;
46015;BME280;36844;51.898;-0.874;2023-03-13T04:26:22;97911.31;;;17.86;
46015;BME280;36844;51.898;-0.874;2023-03-13T04:28:47;97904.44;;;17.85;
46015;BME280;36844;51.898;-0.874;2023-03-13T04:31:12;97899.06;;;17.85;
46015;BME280;36844;51.898;-0.874;2023-03-13T04:33:37;97891.44;;;17.84;
46015;BME280;36844;51.898;-0.874;2023-03-13T04:36:03;97910.28;;;17.84;
46015;BME280;36844;51.898;-0.874;2023-03-13T04:38:28;97901.47;;;17.83;
46015;BME280;36844;51.898;-0.874;2023-03-13T04:40:53;97900.72;;;17.83;
46015;BME280;36844;51.898;-0.874;2023-03-13T04:43:18;97898.47;;;17.81;
46015;BME280;36844;51.898;-0.874;2023-03-13T04:45:44;97885.78;;;17.82;
46015;BME280;36844;51.898;-0.874;2023-03-13T04:48:10;97877.41;;;17.80;
46015;BME280;36844;51.898;-0.874;2023-03-13T04:50:35;97885.50;;;17.80;
46015;BME280;36844;51.898;-0.874;2023-03-13T04:53:00;97883.25;;;17.78;
46015;BME280;36844;51.898;-0.874;2023-03-13T04:55:26;97884.44;;;17.77;
46015;BME280;36844;51.898;-0.874;2023-03-13T04:57:51;97883.72;;;17.77;
46015;BME280;36844;51.898;-0.874;2023-03-13T05:00:16;97887.59;;;17.75;
46015;BME280;36844;51.898;-0.874;2023-03-13T05:02:42;97876.81;;;17.75;
46015;BME280;36844;51.898;-0.874;2023-03-13T05:05:07;97878.75;;;17.75;
46015;BME280;36844;51.898;-0.874;2023-03-13T05:07:32;97877.28;;;17.74;
46015;BME280;36844;51.898;-0.874;2023-03-13T05:09:57;97875.06;;;17.72;
46015;BME280;36844;51.898;-0.874;2023-03-13T05:12:23;97869.69;;;17.72;
46015;BME280;36844;51.898;-0.874;2023-03-13T05:14:48;97868.94;;;17.72;
46015;BME280;36844;51.898;-0.874;2023-03-13T05:17:14;97862.78;;;17.71;
46015;BME280;36844;51.898;-0.874;2023-03-13T05:19:39;97852.50;;;17.70;
46015;BME280;36844;51.898;-0.874;2023-03-13T05:22:04;97859.84;;;17.69;
46015;BME280;36844;51.898;-0.874;2023-03-13T05:24:30;97865.22;;;17.69;
46015;BME280;36844;51.898;-0.874;2023-03-13T05:26:55;97859.09;;;17.69;
46015;BME280;36844;51.898;-0.874;2023-03-13T05:29:20;97859.09;;;17.69;
46015;BME280;36844;51.898;-0.874;2023-03-13T05:31:45;97872.22;;;17.67;
46015;BME280;36844;51.898;-0.874;2023-03-13T05:34:10;97871.50;;;17.66;
46015;BME280;36844;51.898;-0.874;2023-03-13T05:36:36;97858.75;;;17.67;
46015;BME280;36844;51.898;-0.874;2023-03-13T05:39:01;97858.03;;;17.66;
46015;BME280;36844;51.898;-0.874;2023-03-13T05:41:26;97856.56;;;17.65;
46015;BME280;36844;51.898;-0.874;2023-03-13T05:43:52;97852.38;;;17.64;
46015;BME280;36844;51.898;-0.874;2023-03-13T05:46:17;97844.28;;;17.64;
46015;BME280;36844;51.898;-0.874;2023-03-13T05:48:43;97842.03;;;17.63;
46015;BME280;36844;51.898;-0.874;2023-03-13T05:51:09;97840.09;;;17.63;
46015;BME280;36844;51.898;-0.874;2023-03-13T05:53:34;97838.63;;;17.62;
46015;BME280;36844;51.898;-0.874;2023-03-13T05:56:00;97842.53;;;17.61;
46015;BME280;36844;51.898;-0.874;2023-03-13T05:58:25;97832.53;;;17.62;
46015;BME280;36844;51.898;-0.874;2023-03-13T06:00:50;97831.78;;;17.61;
46015;BME280;36844;51.898;-0.874;2023-03-13T06:03:15;97829.50;;;17.60;
46015;BME280;36844;51.898;-0.874;2023-03-13T06:05:40;97830.25;;;17.60;
46015;BME280;36844;51.898;-0.874;2023-03-13T06:08:06;97822.66;;;17.59;
46015;BME280;36844;51.898;-0.874;2023-03-13T06:10:31;97824.63;;;17.58;
46015;BME280;36844;51.898;-0.874;2023-03-13T06:12:56;97836.09;;;17.59;
46015;BME280;36844;51.898;-0.874;2023-03-13T06:15:22;97832.69;;;17.58;
46015;BME280;36844;51.898;-0.874;2023-03-13T06:17:47;97836.56;;;17.57;
46015;BME280;36844;51.898;-0.874;2023-03-13T06:20:13;97819.66;;;17.57;
46015;BME280;36844;51.898;-0.874;2023-03-13T06:22:38;97818.91;;;17.56;
46015;BME280;36844;51.898;-0.874;2023-03-13T06:25:04;97811.31;;;17.55;
46015;BME280;36844;51.898;-0.874;2023-03-13T06:27:29;97796.63;;;17.56;
46015;BME280;36844;51.898;-0.874;2023-03-13T06:29:55;97783.19;;;17.56;
46015;BME280;36844;51.898;-0.874;2023-03-13T06:32:20;97781.00;;;17.54;
46015;BME280;36844;51.898;-0.874;2023-03-13T06:34:45;97778.31;;;17.54;
46015;BME280;36844;51.898;-0.874;2023-03-13T06:37:10;97773.94;;;17.57;
46015;BME280;36844;51.898;-0.874;2023-03-13T06:39:35;97767.78;;;17.56;
46015;BME280;36844;51.898;-0.874;2023-03-13T06:42:01;97744.34;;;17.57;
46015;BME280;36844;51.898;-0.874;2023-03-13T06:44:26;97766.16;;;17.59;
46015;BME280;36844;51.898;-0.874;2023-03-13T06:46:51;97747.31;;;17.59;
46015;BME280;36844;51.898;-0.874;2023-03-13T06:49:17;97753.72;;;17.61;
46015;BME280;36844;51.898;-0.874;2023-03-13T06:51:42;97737.09;;;17.63;
46015;BME280;36844;51.898;-0.874;2023-03-13T06:54:07;97741.28;;;17.64;
46015;BME280;36844;51.898;-0.874;2023-03-13T06:56:32;97745.03;;;17.66;
46015;BME280;36844;51.898;-0.874;2023-03-13T06:58:57;97754.88;;;17.69;
46015;BME280;36844;51.898;-0.874;2023-03-13T07:01:23;97745.88;;;17.72;
46015;BME280;36844;51.898;-0.874;2023-03-13T07:03:48;97754.97;;;17.75;
46015;BME280;36844;51.898;-0.874;2023-03-13T07:06:13;97750.91;;;17.80;
46015;BME280;36844;51.898;-0.874;2023-03-13T07:08:38;97755.66;;;17.85;
46015;BME280;36844;51.898;-0.874;2023-03-13T07:11:06;97752.06;;;17.88;
46015;BME280;36844;51.898;-0.874;2023-03-13T07:13:32;97741.84;;;17.92;
46015;BME280;36844;51.898;-0.874;2023-03-13T07:16:04;97737.00;;;17.96;
46015;BME280;36844;51.898;-0.874;2023-03-13T07:18:29;97726.06;;;17.99;
46015;BME280;36844;51.898;-0.874;2023-03-13T07:20:56;97732.78;;;18.04;
46015;BME280;36844;51.898;-0.874;2023-03-13T07:23:21;97730.66;;;18.08;
46015;BME280;36844;51.898;-0.874;2023-03-13T07:25:57;97742.41;;;18.10;
46015;BME280;36844;51.898;-0.874;2023-03-13T07:28:23;97744.50;;;18.15;
46015;BME280;36844;51.898;-0.874;2023-03-13T07:30:48;97726.66;;;18.18;
46015;BME280;36844;51.898;-0.874;2023-03-13T07:33:14;97729.91;;;18.22;
46015;BME280;36844;51.898;-0.874;2023-03-13T07:35:39;97734.84;;;18.23;
46015;BME280;36844;51.898;-0.874;2023-03-13T07:38:04;97735.84;;;18.26;
46015;BME280;36844;51.898;-0.874;2023-03-13T07:40:30;97729.53;;;18.29;
46015;BME280;36844;51.898;-0.874;2023-03-13T07:42:55;97729.84;;;18.31;
46015;BME280;36844;51.898;-0.874;2023-03-13T07:45:20;97720.81;;;18.34;
46015;BME280;36844;51.898;-0.874;2023-03-13T07:47:45;97731.13;;;18.35;
46015;BME280;36844;51.898;-0.874;2023-03-13T07:50:10;97740.25;;;18.38;
46015;BME280;36844;51.898;-0.874;2023-03-13T07:52:37;97739.03;;;18.39;
46015;BME280;36844;51.898;-0.874;2023-03-13T07:55:02;97723.13;;;18.41;
46015;BME280;36844;51.898;-0.874;2023-03-13T07:57:28;97732.97;;;18.44;
46015;BME280;36844;51.898;-0.874;2023-03-13T07:59:53;97735.66;;;18.44;
46015;BME280;36844;51.898;-0.874;2023-03-13T08:02:18;97725.91;;;18.46;
46015;BME280;36844;51.898;-0.874;2023-03-13T08:04:43;97720.06;;;18.48;
46015;BME280;36844;51.898;-0.874;2023-03-13T08:07:09;97735.03;;;18.49;
46015;BME280;36844;51.898;-0.874;2023-03-13T08:09:34;97733.06;;;18.49;
46015;BME280;36844;51.898;-0.874;2023-03-13T08:11:59;97731.13;;;18.50;
46015;BME280;36844;51.898;-0.874;2023-03-13T08:14:25;97711.06;;;18.51;
46015;BME280;36844;51.898;-0.874;2023-03-13T08:16:51;97707.63;;;18.50;
46015;BME280;36844;51.898;-0.874;2023-03-13T08:19:17;97700.28;;;18.51;
46015;BME280;36844;51.898;-0.874;2023-03-13T08:21:42;97700.28;;;18.51;
46015;BME280;36844;51.898;-0.874;2023-03-13T08:24:07;97712.53;;;18.52;
46015;BME280;36844;51.898;-0.874;2023-03-13T08:26:34;97711.06;;;18.51;
46015;BME280;36844;51.898;-0.874;2023-03-13T08:29:00;97716.47;;;18.51;
46015;BME280;36844;51.898;-0.874;2023-03-13T08:31:28;97690.22;;;18.51;
46015;BME280;36844;51.898;-0.874;2023-03-13T08:33:53;97690.97;;;18.52;
46015;BME280;36844;51.898;-0.874;2023-03-13T08:36:19;97701.75;;;18.52;
46015;BME280;36844;51.898;-0.874;2023-03-13T08:38:47;97693.69;;;18.52;
46015;BME280;36844;51.898;-0.874;2023-03-13T08:41:13;97690.22;;;18.51;
46015;BME280;36844;51.898;-0.874;2023-03-13T08:43:39;97690.97;;;18.52;
46015;BME280;36844;51.898;-0.874;2023-03-13T08:46:04;97698.31;;;18.51;
46015;BME280;36844;51.898;-0.874;2023-03-13T08:48:29;97681.69;;;18.53;
46015;BME280;36844;51.898;-0.874;2023-03-13T08:51:01;97686.34;;;18.52;
46015;BME280;36844;51.898;-0.874;2023-03-13T08:53:27;97697.13;;;18.52;
46015;BME280;36844;51.898;-0.874;2023-03-13T08:55:53;97697.84;;;18.53;
46015;BME280;36844;51.898;-0.874;2023-03-13T08:58:18;97690.97;;;18.52;
46015;BME280;36844;51.898;-0.874;2023-03-13T09:00:43;97697.59;;;18.51;
46015;BME280;36844;51.898;-0.874;2023-03-13T09:03:08;97693.69;;;18.52;
46015;BME280;36844;51.898;-0.874;2023-03-13T09:05:35;97713.75;;;18.51;
46015;BME280;36844;51.898;-0.874;2023-03-13T09:08:01;97702.97;;;18.51;
46015;BME280;36844;51.898;-0.874;2023-03-13T09:10:26;97711.50;;;18.49;
46015;BME280;36844;51.898;-0.874;2023-03-13T09:12:51;97721.56;;;18.49;
46015;BME280;36844;51.898;-0.874;2023-03-13T09:15:16;97718.88;;;18.49;
46015;BME280;36844;51.898;-0.874;2023-03-13T09:17:42;97733.53;;;18.48;
46015;BME280;36844;51.898;-0.874;2023-03-13T09:20:07;97733.25;;;18.46;
46015;BME280;36844;51.898;-0.874;2023-03-13T09:22:33;97742.56;;;18.45;
46015;BME280;36844;51.898;-0.874;2023-03-13T09:24:58;97743.75;;;18.44;
46015;BME280;36844;51.898;-0.874;2023-03-13T09:27:23;97742.28;;;18.43;
46015;BME280;36844;51.898;-0.874;2023-03-13T09:29:49;97766.25;;;18.41;
46015;BME280;36844;51.898;-0.874;2023-03-13T09:32:14;97743.94;;;18.40;
46015;BME280;36844;51.898;-0.874;2023-03-13T09:34:39;97740.50;;;18.40;
46015;BME280;36844;51.898;-0.874;2023-03-13T09:37:04;97751.28;;;18.40;
46015;BME280;36844;51.898;-0.874;2023-03-13T09:39:30;97740.50;;;18.40;
46015;BME280;36844;51.898;-0.874;2023-03-13T09:42:14;97765.97;;;18.39;
46015;BME280;36844;51.898;-0.874;2023-03-13T09:44:42;97737.06;;;18.39;
46015;BME280;36844;51.898;-0.874;2023-03-13T09:47:18;97747.84;;;18.39;
46015;BME280;36844;51.898;-0.874;2023-03-13T09:49:46;97740.50;;;18.40;
46015;BME280;36844;51.898;-0.874;2023-03-13T09:52:16;97738.56;;;18.40;
46015;BME280;36844;51.898;-0.874;2023-03-13T09:59:58;97744.97;;;18.43;
46015;BME280;36844;51.898;-0.874;2023-03-13T10:02:31;97731.03;;;18.44;
46015;BME280;36844;51.898;-0.874;2023-03-13T10:05:12;97739.13;;;18.44;
46015;BME280;36844;51.898;-0.874;2023-03-13T10:07:39;97727.16;;;18.45;
46015;BME280;36844;51.898;-0.874;2023-03-13T10:10:06;97730.56;;;18.46;
46015;BME280;36844;51.898;-0.874;2023-03-13T10:12:37;97734.75;;;18.47;
46015;BME280;36844;51.898;-0.874;2023-03-13T10:17:48;97722.75;;;18.48;
46015;BME280;36844;51.898;-0.874;2023-03-13T10:22:43;97730.84;;;18.48;
46015;BME280;36844;51.898;-0.874;2023-03-13T10:28:11;97724.25;;;18.49;
46015;BME280;36844;51.898;-0.874;2023-03-13T10:30:36;97710.03;;;18.48;
46015;BME280;36844;51.898;-0.874;2023-03-13T10:35:33;97726.22;;;18.48;
46015;BME280;36844;51.898;-0.874;2023-03-13T10:38:00;97722.75;;;18.48;
46015;BME280;36844;51.898;-0.874;2023-03-13T10:40:26;97712.72;;;18.48;
46015;BME280;36844;51.898;-0.874;2023-03-13T10:42:52;97709.28;;;18.48;
46015;BME280;36844;51.898;-0.874;2023-03-13T10:45:19;97725.44;;;18.48;
46015;BME280;36844;51.898;-0.874;2023-03-13T10:47:45;97721.28;;;18.47;
46015;BME280;36844;51.898;-0.874;2023-03-13T10:50:18;97724.69;;;18.47;
46015;BME280;36844;51.898;-0.874;2023-03-13T10:52:45;97722.00;;;18.47;
46015;BME280;36844;51.898;-0.874;2023-03-13T10:55:12;97729.38;;;18.47;
46015;BME280;36844;51.898;-0.874;2023-03-13T10:57:40;97716.63;;;18.47;
46015;BME280;36844;51.898;-0.874;2023-03-13T11:00:28;97741.34;;;18.46;
46015;BME280;36844;51.898;-0.874;2023-03-13T11:02:55;97727.88;;;18.46;
46015;BME280;36844;51.898;-0.874;2023-03-13T11:07:55;97713.66;;;18.45;
46015;BME280;36844;51.898;-0.874;2023-03-13T11:10:27;97731.78;;;18.45;
46015;BME280;36844;51.898;-0.874;2023-03-13T11:12:54;97727.59;;;18.44;
46015;BME280;36844;51.898;-0.874;2023-03-13T11:15:40;97724.44;;;18.45;
46015;BME280;36844;51.898;-0.874;2023-03-13T11:18:27;97721.00;;;18.45;
46015;BME280;36844;51.898;-0.874;2023-03-13T11:20:55;97737.16;;;18.45;
46015;BME280;36844;51.898;-0.874;2023-03-13T11:23:42;97728.34;;;18.44;
46015;BME280;36844;51.898;-0.874;2023-03-13T11:26:15;97727.59;;;18.44;
46015;BME280;36844;51.898;-0.874;2023-03-13T11:29:06;97733.72;;;18.44;
46015;BME280;36844;51.898;-0.874;2023-03-13T11:31:36;97742.56;;;18.45;
46015;BME280;36844;51.898;-0.874;2023-03-13T11:34:04;97731.78;;;18.45;
46015;BME280;36844;51.898;-0.874;2023-03-13T11:36:32;97738.63;;;18.46;
46015;BME280;36844;51.898;-0.874;2023-03-13T11:41:29;97746.00;;;18.45;
46015;BME280;36844;51.898;-0.874;2023-03-13T11:43:59;97762.88;;;18.46;
46015;BME280;36844;51.898;-0.874;2023-03-13T11:46:31;97739.88;;;18.45;
46015;BME280;36844;51.898;-0.874;2023-03-13T12:01:48;97719.06;;;18.45;
46015;BME280;36844;51.898;-0.874;2023-03-13T12:04:26;97724.44;;;18.45;
46015;BME280;36844;51.898;-0.874;2023-03-13T12:07:03;97733.25;;;18.46;
46015;BME280;36844;51.898;-0.874;2023-03-13T12:09:32;97725.16;;;18.46;
46015;BME280;36844;51.898;-0.874;2023-03-13T12:14:38;97728.16;;;18.48;
46015;BME280;36844;51.898;-0.874;2023-03-13T12:19:36;97740.44;;;18.49;
46015;BME280;36844;51.898;-0.874;2023-03-13T12:22:13;97736.50;;;18.50;
46015;BME280;36844;51.898;-0.874;2023-03-13T12:24:39;97721.09;;;18.50;
46015;BME280;36844;51.898;-0.874;2023-03-13T12:33:00;97694.91;;;18.51;
46015;BME280;36844;51.898;-0.874;2023-03-13T12:35:29;97695.63;;;18.51;
46015;BME280;36844;51.898;-0.874;2023-03-13T12:43:31;97690.97;;;18.52;
46015;BME280;36844;51.898;-0.874;2023-03-13T12:59:04;97664.78;;;18.52;
46015;BME280;36844;51.898;-0.874;2023-03-13T13:01:32;97657.44;;;18.53;
46015;BME280;36844;51.898;-0.874;2023-03-13T13:04:06;97666.25;;;18.53;
46015;BME280;36844;51.898;-0.874;2023-03-13T13:09:20;97654.28;;;18.54;
46015;BME280;36844;51.898;-0.874;2023-03-13T13:11:47;97657.72;;;18.55;
46015;BME280;36844;51.898;-0.874;2023-03-13T13:16:41;97664.59;;;18.56;
46015;BME280;36844;51.898;-0.874;2023-03-13T13:19:49;97673.41;;;18.56;
46015;BME280;36844;51.898;-0.874;2023-03-13T13:24:51;97661.91;;;18.56;
46015;BME280;36844;51.898;-0.874;2023-03-13T13:30:02;97674.63;;;18.55;
46015;BME280;36844;51.898;-0.874;2023-03-13T13:32:38;97664.59;;;18.56;
46015;BME280;36844;51.898;-0.874;2023-03-13T13:35:23;97667.28;;;18.56;
46015;BME280;36844;51.898;-0.874;2023-03-13T13:37:49;97651.59;;;18.54;
46015;BME280;36844;51.898;-0.874;2023-03-13T13:42:55;97651.59;;;18.54;
46015;BME280;36844;51.898;-0.874;2023-03-13T13:45:28;97646.22;;;18.54;
46015;BME280;36844;51.898;-0.874;2023-03-13T13:50:37;97627.78;;;18.53;
46015;BME280;36844;51.898;-0.874;2023-03-13T13:55:46;97648.63;;;18.52;
46015;BME280;36844;51.898;-0.874;2023-03-13T13:58:20;97637.09;;;18.52;
46015;BME280;36844;51.898;-0.874;2023-03-13T14:00:58;97639.03;;;18.51;
46015;BME280;36844;51.898;-0.874;2023-03-13T14:03:25;97636.34;;;18.51;
46015;BME280;36844;51.898;-0.874;2023-03-13T14:05:51;97643.72;;;18.51;
46015;BME280;36844;51.898;-0.874;2023-03-13T14:08:51;97630.22;;;18.51;
46015;BME280;36844;51.898;-0.874;2023-03-13T14:11:20;97619.44;;;18.51;
46015;BME280;36844;51.898;-0.874;2023-03-13T14:14:07;97612.56;;;18.50;
46015;BME280;36844;51.898;-0.874;2023-03-13T14:16:31;97621.88;;;18.49;
46015;BME280;36844;51.898;-0.874;2023-03-13T14:18:57;97623.34;;;18.50;
46015;BME280;36844;51.898;-0.874;2023-03-13T14:21:22;97620.38;;;18.48;
46015;BME280;36844;51.898;-0.874;2023-03-13T14:23:48;97611.09;;;18.49;
46015;BME280;36844;51.898;-0.874;2023-03-13T14:26:17;97596.88;;;18.48;
46015;BME280;36844;51.898;-0.874;2023-03-13T14:28:44;97607.66;;;18.48;
46015;BME280;36844;51.898;-0.874;2023-03-13T14:31:09;97608.13;;;18.47;
46015;BME280;36844;51.898;-0.874;2023-03-13T14:33:44;97610.81;;;18.47;
46015;BME280;36844;51.898;-0.874;2023-03-13T14:36:09;97602.72;;;18.47;
46015;BME280;36844;51.898;-0.874;2023-03-13T14:38:36;97590.47;;;18.46;
46015;BME280;36844;51.898;-0.874;2023-03-13T14:41:02;97595.84;;;18.46;
46015;BME280;36844;51.898;-0.874;2023-03-13T14:45:52;97599.75;;;18.45;
46015;BME280;36844;51.898;-0.874;2023-03-13T14:48:19;97595.84;;;18.46;
46015;BME280;36844;51.898;-0.874;2023-03-13T14:50:45;97602.47;;;18.45;
46015;BME280;36844;51.898;-0.874;2023-03-13T14:53:12;97599.00;;;18.44;
46015;BME280;36844;51.898;-0.874;2023-03-13T14:55:38;97598.25;;;18.44;
46015;BME280;36844;51.898;-0.874;2023-03-13T15:00:44;97586.75;;;18.43;
46015;BME280;36844;51.898;-0.874;2023-03-13T15:05:41;97594.09;;;18.43;
46015;BME280;36844;51.898;-0.874;2023-03-13T15:08:12;97599.00;;;18.44;
46015;BME280;36844;51.898;-0.874;2023-03-13T15:10:38;97598.25;;;18.44;
46015;BME280;36844;51.898;-0.874;2023-03-13T15:15:39;97590.47;;;18.46;
46015;BME280;36844;51.898;-0.874;2023-03-13T15:18:16;97591.22;;;18.46;
46015;BME280;36844;51.898;-0.874;2023-03-13T15:20:42;97573.81;;;18.47;